Time;durP1;ratioP1;P1;durP2;ratioP2;P2;SDS_P1;SDS_P2;PMS_P1;PMS_P2;Temp;Humidity;BMP_temperature;BMP_pressure;BME280_temperature;BME280_humidity;BME280_pressure;Samples;Min_cycle;Max_cycle;Signal;HPM_P1;HPM_P2
2021/12/01 00:01:19;;;;;;;4.03;1.90;;;;;;;;;;7393905;19;20011;-55
2021/12/01 00:03:47;;;;;;;7.65;1.98;;;;;;;;;;7393921;19;20023;-60
2021/12/01 00:06:15;;;;;;;5.97;2.00;;;;;;;;;;7393545;19;20023;-56
2021/12/01 00:08:42;;;;;;;6.97;2.58;;;;;;;;;;7392977;19;20006;-60
2021/12/01 00:11:09;;;;;;;4.97;2.20;;;;;;;;;;7393512;19;20014;-59
2021/12/01 00:13:37;;;;;;;5.05;2.20;;;;;;;;;;7394116;19;20022;-59
2021/12/01 00:16:07;;;;;;;6.20;1.90;;;;;;;;;;7393533;19;20085;-52
2021/12/01 00:18:36;;;;;;;4.43;2.08;;;;;;;;;;7393661;19;20011;-57
2021/12/01 00:21:03;;;;;;;8.68;1.90;;;;;;;;;;7397385;19;20010;-57
2021/12/01 00:23:30;;;;;;;7.68;2.15;;;;;;;;;;7393981;19;20017;-55
2021/12/01 00:25:58;;;;;;;5.75;2.03;;;;;;;;;;7393071;19;20011;-54
2021/12/01 00:28:26;;;;;;;6.32;2.00;;;;;;;;;;7392166;19;20077;-58
2021/12/01 00:30:53;;;;;;;7.68;1.88;;;;;;;;;;7392976;19;20366;-59
2021/12/01 00:33:24;;;;;;;6.28;2.20;;;;;;;;;;7392794;19;20015;-57
2021/12/01 00:35:53;;;;;;;5.97;2.55;;;;;;;;;;7391786;19;20281;-60
2021/12/01 00:38:22;;;;;;;10.82;3.22;;;;;;;;;;7393345;19;20018;-59
2021/12/01 00:40:50;;;;;;;10.07;2.30;;;;;;;;;;7393047;19;20014;-59
2021/12/01 00:43:19;;;;;;;7.85;2.30;;;;;;;;;;7392572;19;20010;-57
2021/12/01 00:46:00;;;;;;;10.18;2.40;;;;;;;;;;7392102;19;20018;-54
2021/12/01 00:48:28;;;;;;;6.35;2.60;;;;;;;;;;7392931;19;20466;-53
2021/12/01 00:50:55;;;;;;;10.88;2.58;;;;;;;;;;7392337;19;20011;-52
2021/12/01 00:53:23;;;;;;;6.75;2.90;;;;;;;;;;7392372;19;20006;-59
2021/12/01 00:55:50;;;;;;;6.15;2.20;;;;;;;;;;7392217;19;20010;-52
2021/12/01 00:58:18;;;;;;;8.65;3.80;;;;;;;;;;7392155;19;20020;-57
2021/12/01 01:00:48;;;;;;;6.22;2.25;;;;;;;;;;7391836;19;20007;-55
2021/12/01 01:03:17;;;;;;;7.35;2.33;;;;;;;;;;7392147;19;20034;-57
2021/12/01 01:05:46;;;;;;;9.38;3.85;;;;;;;;;;7391510;19;20014;-59
2021/12/01 01:08:16;;;;;;;4.93;1.80;;;;;;;;;;7391872;19;20006;-56
2021/12/01 01:18:54;;;;;;;5.60;1.95;;;;;;;;;;7391916;19;20022;-59
2021/12/01 01:21:23;;;;;;;6.32;2.92;;;;;;;;;;7391173;19;20090;-58
2021/12/01 01:23:51;;;;;;;6.55;2.50;;;;;;;;;;7391660;19;20011;-58
2021/12/01 01:26:20;;;;;;;5.38;2.28;;;;;;;;;;7390865;19;20351;-57
2021/12/01 01:28:48;;;;;;;9.23;2.22;;;;;;;;;;7390894;19;20014;-56
2021/12/01 01:31:16;;;;;;;7.85;2.08;;;;;;;;;;7390716;19;20090;-59
2021/12/01 01:33:44;;;;;;;9.88;2.42;;;;;;;;;;7390760;19;20007;-61
2021/12/01 01:36:12;;;;;;;7.72;2.85;;;;;;;;;;7389438;19;20506;-59
2021/12/01 01:38:40;;;;;;;4.15;2.30;;;;;;;;;;7390156;19;20010;-59
2021/12/01 01:41:10;;;;;;;7.70;2.78;;;;;;;;;;7389914;19;20019;-53
2021/12/01 01:43:42;;;;;;;5.25;2.25;;;;;;;;;;7390674;19;20509;-57
2021/12/01 01:46:11;;;;;;;10.07;2.40;;;;;;;;;;7390295;19;20011;-59
2021/12/01 01:48:48;;;;;;;10.10;2.17;;;;;;;;;;7390185;19;20007;-55
2021/12/01 01:51:19;;;;;;;5.50;2.42;;;;;;;;;;7390719;19;20012;-52
2021/12/01 01:53:50;;;;;;;4.32;2.22;;;;;;;;;;7388921;19;20016;-57
2021/12/01 01:56:18;;;;;;;5.53;2.30;;;;;;;;;;7390166;19;20079;-59
2021/12/01 01:58:46;;;;;;;5.53;2.05;;;;;;;;;;7389955;19;20014;-60
2021/12/01 02:04:00;;;;;;;6.53;2.28;;;;;;;;;;7390711;19;20007;-55
2021/12/01 02:06:27;;;;;;;7.40;2.72;;;;;;;;;;7391602;19;20018;-59
2021/12/01 02:08:57;;;;;;;4.53;2.53;;;;;;;;;;7390130;19;20531;-54
2021/12/01 02:11:27;;;;;;;6.00;2.78;;;;;;;;;;7390260;19;20019;-58
2021/12/01 02:13:56;;;;;;;3.92;2.13;;;;;;;;;;7390490;19;20092;-57
2021/12/01 02:16:24;;;;;;;5.82;1.92;;;;;;;;;;7390135;19;20033;-54
2021/12/01 02:18:52;;;;;;;11.27;2.13;;;;;;;;;;7390146;19;20014;-56
2021/12/01 02:21:28;;;;;;;5.78;2.00;;;;;;;;;;7394649;19;20085;-59
2021/12/01 02:23:59;;;;;;;13.73;2.85;;;;;;;;;;7389611;19;20031;-59
2021/12/01 02:26:29;;;;;;;6.30;2.38;;;;;;;;;;7389852;19;20025;-59
2021/12/01 02:29:00;;;;;;;5.45;2.38;;;;;;;;;;7389218;19;20074;-57
2021/12/01 02:31:34;;;;;;;3.53;1.88;;;;;;;;;;7389800;19;20015;-58
2021/12/01 02:34:04;;;;;;;6.28;2.50;;;;;;;;;;7389548;19;20010;-59
2021/12/01 02:36:32;;;;;;;5.85;2.20;;;;;;;;;;7388155;19;20031;-57
2021/12/01 02:39:03;;;;;;;4.82;2.08;;;;;;;;;;7389637;19;20006;-60
2021/12/01 02:41:32;;;;;;;3.78;1.90;;;;;;;;;;7389670;19;20014;-59
2021/12/01 02:44:03;;;;;;;3.53;2.00;;;;;;;;;;7389857;19;20019;-54
2021/12/01 02:46:31;;;;;;;4.03;2.17;;;;;;;;;;7389586;19;20019;-54
2021/12/01 02:48:59;;;;;;;10.73;2.55;;;;;;;;;;7389000;19;20649;-59
2021/12/01 02:51:28;;;;;;;8.07;2.25;;;;;;;;;;7393380;19;20006;-51
2021/12/01 02:53:55;;;;;;;7.60;2.15;;;;;;;;;;7394364;19;20010;-58
2021/12/01 02:56:31;;;;;;;8.75;1.92;;;;;;;;;;7397129;19;20046;-61
2021/12/01 02:59:01;;;;;;;5.72;2.50;;;;;;;;;;7397201;19;20015;-55
2021/12/01 03:01:29;;;;;;;6.35;2.20;;;;;;;;;;7397570;19;20081;-57
2021/12/01 03:03:59;;;;;;;15.77;2.75;;;;;;;;;;7396169;19;20010;-62
2021/12/01 03:06:28;;;;;;;5.43;2.03;;;;;;;;;;7396293;19;20014;-62
2021/12/01 03:08:57;;;;;;;12.68;3.90;;;;;;;;;;7395649;19;20010;-55
2021/12/01 03:11:25;;;;;;;6.57;2.35;;;;;;;;;;7395416;19;20462;-55
2021/12/01 03:13:54;;;;;;;4.80;2.15;;;;;;;;;;7395698;19;20530;-61
2021/12/01 03:16:22;;;;;;;6.88;3.03;;;;;;;;;;7395495;19;20382;-57
2021/12/01 03:18:50;;;;;;;7.20;2.28;;;;;;;;;;7395648;19;20014;-59
2021/12/01 03:21:18;;;;;;;3.67;1.65;;;;;;;;;;7400330;19;20018;-62
2021/12/01 03:23:46;;;;;;;4.80;1.80;;;;;;;;;;7395768;19;20015;-62
2021/12/01 03:26:13;;;;;;;8.30;2.55;;;;;;;;;;7395071;19;20007;-61
2021/12/01 03:28:40;;;;;;;13.07;3.33;;;;;;;;;;7390643;19;20364;-60
2021/12/01 03:31:08;;;;;;;7.60;3.40;;;;;;;;;;7392632;19;20010;-61
2021/12/01 03:33:36;;;;;;;4.13;1.90;;;;;;;;;;7394970;19;20010;-60
2021/12/01 03:36:04;;;;;;;23.13;9.25;;;;;;;;;;7395192;19;20011;-56
2021/12/01 03:38:31;;;;;;;5.65;2.30;;;;;;;;;;7398313;19;20013;-60
2021/12/01 03:40:59;;;;;;;7.65;2.55;;;;;;;;;;7394892;19;20875;-58
2021/12/01 03:43:26;;;;;;;5.72;2.25;;;;;;;;;;7394699;19;20011;-57
2021/12/01 03:45:54;;;;;;;6.13;2.67;;;;;;;;;;7395296;19;20496;-58
2021/12/01 03:48:23;;;;;;;5.97;1.95;;;;;;;;;;7393928;19;20018;-58
2021/12/01 03:50:52;;;;;;;7.75;2.20;;;;;;;;;;7391400;19;20038;-57
2021/12/01 03:53:21;;;;;;;3.45;1.95;;;;;;;;;;7394476;19;20014;-53
2021/12/01 03:55:49;;;;;;;6.30;2.05;;;;;;;;;;7394152;19;20014;-63
2021/12/01 03:58:16;;;;;;;25.67;8.93;;;;;;;;;;7393815;19;20025;-59
2021/12/01 04:00:44;;;;;;;5.25;2.20;;;;;;;;;;7394069;19;20002;-57
2021/12/01 04:03:11;;;;;;;4.18;1.85;;;;;;;;;;7392669;19;20003;-56
2021/12/01 04:05:39;;;;;;;4.72;2.13;;;;;;;;;;7393797;19;20010;-55
2021/12/01 04:08:08;;;;;;;6.38;2.15;;;;;;;;;;7393339;19;20368;-59
2021/12/01 04:10:35;;;;;;;5.45;1.98;;;;;;;;;;7392580;19;20094;-50
2021/12/01 04:13:03;;;;;;;9.10;2.00;;;;;;;;;;7394066;19;20365;-60
2021/12/01 04:15:31;;;;;;;4.03;1.90;;;;;;;;;;7393675;19;20021;-54
2021/12/01 04:17:59;;;;;;;8.38;2.13;;;;;;;;;;7398132;19;20015;-53
2021/12/01 04:20:26;;;;;;;85.72;29.17;;;;;;;;;;7396296;19;20018;-57
2021/12/01 04:22:54;;;;;;;6.35;2.90;;;;;;;;;;7393728;19;20038;-60
2021/12/01 04:25:22;;;;;;;12.85;2.42;;;;;;;;;;7392318;19;20104;-51
2021/12/01 04:27:50;;;;;;;5.40;1.90;;;;;;;;;;7391948;19;20021;-54
2021/12/01 04:30:21;;;;;;;8.65;2.13;;;;;;;;;;7391624;19;20007;-60
2021/12/01 04:32:50;;;;;;;6.82;2.15;;;;;;;;;;7393425;19;20050;-57
2021/12/01 04:35:19;;;;;;;4.68;1.90;;;;;;;;;;7392910;19;20022;-53
2021/12/01 04:37:48;;;;;;;8.52;2.40;;;;;;;;;;7393723;19;20019;-60
2021/12/01 04:40:16;;;;;;;7.65;2.22;;;;;;;;;;7392534;19;20034;-53
2021/12/01 04:42:44;;;;;;;3.45;2.05;;;;;;;;;;7392858;19;20014;-59
2021/12/01 04:45:17;;;;;;;6.65;2.97;;;;;;;;;;7392678;19;20018;-60
2021/12/01 04:47:48;;;;;;;5.55;2.00;;;;;;;;;;7392784;19;20040;-58
2021/12/01 04:50:17;;;;;;;5.78;2.17;;;;;;;;;;7391750;19;20077;-56
2021/12/01 04:52:45;;;;;;;3.80;1.65;;;;;;;;;;7392165;19;20082;-59
2021/12/01 04:55:13;;;;;;;7.47;2.10;;;;;;;;;;7392575;19;20018;-54
2021/12/01 04:57:43;;;;;;;4.70;2.38;;;;;;;;;;7392153;19;20011;-56
2021/12/01 05:00:19;;;;;;;6.32;2.55;;;;;;;;;;7391588;19;20822;-58
2021/12/01 05:02:46;;;;;;;8.02;3.05;;;;;;;;;;7392681;19;20030;-53
2021/12/01 05:05:14;;;;;;;5.40;2.08;;;;;;;;;;7391835;19;20030;-60
2021/12/01 05:07:43;;;;;;;4.30;2.40;;;;;;;;;;7392039;19;20010;-59
2021/12/01 05:10:11;;;;;;;4.20;2.10;;;;;;;;;;7390744;19;20360;-60
2021/12/01 05:12:39;;;;;;;5.47;1.95;;;;;;;;;;7391907;19;20025;-59
2021/12/01 05:15:06;;;;;;;8.75;2.33;;;;;;;;;;7389269;19;20006;-58
2021/12/01 05:17:34;;;;;;;6.30;2.22;;;;;;;;;;7391636;19;20082;-56
2021/12/01 05:20:04;;;;;;;34.75;10.75;;;;;;;;;;7393773;19;20010;-58
2021/12/01 05:22:32;;;;;;;6.93;3.25;;;;;;;;;;7392006;19;20011;-60
2021/12/01 05:25:01;;;;;;;4.18;1.85;;;;;;;;;;7391763;19;20018;-59
2021/12/01 05:27:30;;;;;;;10.43;2.50;;;;;;;;;;7391294;19;20022;-60
2021/12/01 05:29:57;;;;;;;4.50;2.17;;;;;;;;;;7388785;19;20360;-60
2021/12/01 05:32:25;;;;;;;7.82;3.05;;;;;;;;;;7391281;19;20014;-53
2021/12/01 05:34:53;;;;;;;3.28;1.45;;;;;;;;;;7391090;19;20622;-61
2021/12/01 05:37:21;;;;;;;4.25;1.88;;;;;;;;;;7391627;19;20390;-62
2021/12/01 05:39:48;;;;;;;5.65;2.08;;;;;;;;;;7390852;19;20020;-59
2021/12/01 05:42:19;;;;;;;4.07;1.98;;;;;;;;;;7390676;19;20014;-61
2021/12/01 05:44:46;;;;;;;5.13;1.88;;;;;;;;;;7390990;19;20014;-55
2021/12/01 05:47:13;;;;;;;9.43;2.97;;;;;;;;;;7391636;19;20042;-55
2021/12/01 05:49:45;;;;;;;5.07;1.88;;;;;;;;;;7390509;19;20014;-53
2021/12/01 05:52:14;;;;;;;8.00;2.33;;;;;;;;;;7390505;19;20015;-59
2021/12/01 05:54:43;;;;;;;3.55;1.80;;;;;;;;;;7390170;19;20046;-59
2021/12/01 05:57:11;;;;;;;4.15;1.65;;;;;;;;;;7390137;19;20014;-59
2021/12/01 05:59:38;;;;;;;4.78;1.98;;;;;;;;;;7390363;19;20043;-60
2021/12/01 06:02:08;;;;;;;4.97;1.90;;;;;;;;;;7389570;19;20118;-60
2021/12/01 06:04:36;;;;;;;8.70;2.25;;;;;;;;;;7390551;19;20059;-62
2021/12/01 06:07:04;;;;;;;47.50;20.10;;;;;;;;;;7388420;19;20014;-58
2021/12/01 06:09:31;;;;;;;11.98;3.35;;;;;;;;;;7390608;19;20014;-57
2021/12/01 06:11:58;;;;;;;5.07;2.03;;;;;;;;;;7388123;19;20018;-59
2021/12/01 06:14:27;;;;;;;3.45;2.35;;;;;;;;;;7389763;19;20015;-61
2021/12/01 06:16:54;;;;;;;5.95;2.17;;;;;;;;;;7390783;19;20011;-61
2021/12/01 06:19:22;;;;;;;6.20;2.83;;;;;;;;;;7390822;19;20007;-61
2021/12/01 06:21:49;;;;;;;5.00;1.95;;;;;;;;;;7389649;19;20498;-60
2021/12/01 06:24:16;;;;;;;5.40;1.73;;;;;;;;;;7389600;19;20483;-54
2021/12/01 06:26:44;;;;;;;125.22;37.35;;;;;;;;;;7395154;19;20634;-61
2021/12/01 06:29:11;;;;;;;9.90;3.05;;;;;;;;;;7393080;19;20479;-55
2021/12/01 06:31:39;;;;;;;5.68;2.50;;;;;;;;;;7394078;19;20010;-61
2021/12/01 06:34:06;;;;;;;4.38;1.73;;;;;;;;;;7397172;19;20018;-55
2021/12/01 06:36:34;;;;;;;4.85;2.85;;;;;;;;;;7397325;19;20010;-60
2021/12/01 06:39:04;;;;;;;9.30;3.88;;;;;;;;;;7397153;19;20487;-53
2021/12/01 06:41:31;;;;;;;9.40;2.15;;;;;;;;;;7398638;19;20082;-60
2021/12/01 06:43:58;;;;;;;5.22;2.13;;;;;;;;;;7395431;19;20018;-61
2021/12/01 06:46:28;;;;;;;8.88;2.40;;;;;;;;;;7387207;19;20014;-60
2021/12/01 06:48:57;;;;;;;6.00;2.05;;;;;;;;;;7391404;19;20014;-52
2021/12/01 06:51:25;;;;;;;5.32;2.17;;;;;;;;;;7389710;19;20019;-52
2021/12/01 06:53:53;;;;;;;4.38;1.90;;;;;;;;;;7391951;19;20010;-58
2021/12/01 06:56:21;;;;;;;4.72;2.10;;;;;;;;;;7391383;19;20018;-55
2021/12/01 06:58:49;;;;;;;8.60;2.13;;;;;;;;;;7392039;19;20018;-57
2021/12/01 07:01:17;;;;;;;6.95;2.42;;;;;;;;;;7396203;19;20006;-59
2021/12/01 07:03:44;;;;;;;4.93;2.42;;;;;;;;;;7396146;19;20003;-59
2021/12/01 07:06:12;;;;;;;5.20;1.85;;;;;;;;;;7395914;19;20021;-59
2021/12/01 07:08:39;;;;;;;5.93;2.50;;;;;;;;;;7396141;19;20039;-59
2021/12/01 07:11:07;;;;;;;6.80;2.15;;;;;;;;;;7397764;19;20034;-58
2021/12/01 07:13:35;;;;;;;5.57;2.22;;;;;;;;;;7395926;19;20027;-57
2021/12/01 07:16:03;;;;;;;6.63;2.83;;;;;;;;;;7395782;19;20023;-53
2021/12/01 07:18:30;;;;;;;11.15;2.38;;;;;;;;;;7396081;19;20102;-59
2021/12/01 07:20:58;;;;;;;7.03;1.77;;;;;;;;;;7399558;19;20475;-54
2021/12/01 07:23:26;;;;;;;4.78;1.88;;;;;;;;;;7395654;19;20045;-60
2021/12/01 07:26:01;;;;;;;6.25;2.15;;;;;;;;;;7395270;19;20011;-60
2021/12/01 07:28:29;;;;;;;4.05;1.88;;;;;;;;;;7395496;19;20025;-59
2021/12/01 07:30:57;;;;;;;7.47;1.90;;;;;;;;;;7392236;19;20015;-60
2021/12/01 07:33:29;;;;;;;5.75;1.95;;;;;;;;;;7394787;19;20023;-60
2021/12/01 07:35:56;;;;;;;9.07;2.25;;;;;;;;;;7395080;19;20490;-61
2021/12/01 07:38:24;;;;;;;4.70;2.08;;;;;;;;;;7392891;19;20013;-61
2021/12/01 07:40:51;;;;;;;4.55;1.92;;;;;;;;;;7394963;19;20019;-60
2021/12/01 07:43:19;;;;;;;6.95;2.13;;;;;;;;;;7394722;19;20013;-56
2021/12/01 07:45:47;;;;;;;5.88;2.08;;;;;;;;;;7394483;19;20466;-60
2021/12/01 07:48:14;;;;;;;3.55;1.42;;;;;;;;;;7396085;19;20012;-59
2021/12/01 07:50:42;;;;;;;7.13;1.88;;;;;;;;;;7393684;19;20014;-55
2021/12/01 07:53:09;;;;;;;6.82;2.00;;;;;;;;;;7394338;19;20017;-58
2021/12/01 07:55:38;;;;;;;7.13;1.90;;;;;;;;;;7394464;19;20015;-59
2021/12/01 07:58:06;;;;;;;8.85;2.13;;;;;;;;;;7394227;19;20014;-57
2021/12/01 08:00:34;;;;;;;5.20;1.90;;;;;;;;;;7394214;19;20478;-61
2021/12/01 08:03:01;;;;;;;5.25;1.90;;;;;;;;;;7394818;19;20039;-60
2021/12/01 08:05:29;;;;;;;3.03;1.80;;;;;;;;;;7393354;19;20030;-60
2021/12/01 08:07:57;;;;;;;5.90;2.38;;;;;;;;;;7395193;19;20036;-56
2021/12/01 08:10:24;;;;;;;4.65;1.73;;;;;;;;;;7393190;19;20026;-59
2021/12/01 08:12:52;;;;;;;5.10;1.90;;;;;;;;;;7394900;19;20018;-59
2021/12/01 08:15:38;;;;;;;10.05;2.60;;;;;;;;;;7399250;19;20010;-53
2021/12/01 08:18:06;;;;;;;5.10;1.98;;;;;;;;;;7393712;19;20014;-54
2021/12/01 08:20:36;;;;;;;5.53;1.85;;;;;;;;;;7397301;19;20010;-56
2021/12/01 08:23:04;;;;;;;4.22;1.83;;;;;;;;;;7394129;19;20051;-59
2021/12/01 08:25:31;;;;;;;4.15;1.67;;;;;;;;;;7393496;19;20491;-60
2021/12/01 08:28:01;;;;;;;9.25;1.73;;;;;;;;;;7393815;19;20014;-60
2021/12/01 08:30:30;;;;;;;3.45;1.65;;;;;;;;;;7391961;19;20034;-58
2021/12/01 08:32:58;;;;;;;3.05;1.70;;;;;;;;;;7393361;19;20086;-60
2021/12/01 08:35:26;;;;;;;3.72;2.13;;;;;;;;;;7393248;19;20014;-56
2021/12/01 08:37:54;;;;;;;8.23;1.77;;;;;;;;;;7393136;19;20026;-54
2021/12/01 08:40:22;;;;;;;4.45;2.10;;;;;;;;;;7392646;19;20007;-54
2021/12/01 08:42:49;;;;;;;5.45;1.80;;;;;;;;;;7393070;19;20014;-56
2021/12/01 08:45:17;;;;;;;3.83;1.95;;;;;;;;;;7391076;19;20021;-57
2021/12/01 08:47:48;;;;;;;5.22;1.88;;;;;;;;;;7392731;19;20066;-54
2021/12/01 08:50:16;;;;;;;5.45;1.75;;;;;;;;;;7392409;19;20030;-52
2021/12/01 08:52:45;;;;;;;6.78;1.85;;;;;;;;;;7392679;19;20049;-63
2021/12/01 08:55:12;;;;;;;5.90;2.13;;;;;;;;;;7392235;19;20014;-53
2021/12/01 08:58:02;;;;;;;8.95;1.95;;;;;;;;;;7392689;19;20007;-53
2021/12/01 09:00:33;;;;;;;3.55;1.67;;;;;;;;;;7393524;19;20028;-61
2021/12/01 09:03:01;;;;;;;6.97;2.25;;;;;;;;;;7394505;19;20010;-61
2021/12/01 09:05:28;;;;;;;4.35;2.10;;;;;;;;;;7392440;19;20006;-58
2021/12/01 09:07:56;;;;;;;6.15;1.80;;;;;;;;;;7392089;19;20452;-60
2021/12/01 09:10:23;;;;;;;7.30;2.42;;;;;;;;;;7391678;19;20333;-56
2021/12/01 09:12:50;;;;;;;3.08;1.80;;;;;;;;;;7392662;19;20003;-53
2021/12/01 09:15:18;;;;;;;5.13;1.88;;;;;;;;;;7392107;19;20011;-61
2021/12/01 09:17:46;;;;;;;9.70;2.20;;;;;;;;;;7392151;19;20034;-62
2021/12/01 09:20:14;;;;;;;5.88;1.60;;;;;;;;;;7395032;19;20030;-60
2021/12/01 09:22:42;;;;;;;4.70;1.75;;;;;;;;;;7391709;19;20010;-60
2021/12/01 09:25:10;;;;;;;5.28;1.85;;;;;;;;;;7391674;19;20014;-56
2021/12/01 09:27:38;;;;;;;4.75;2.03;;;;;;;;;;7391782;19;20035;-56
2021/12/01 09:30:07;;;;;;;5.35;1.80;;;;;;;;;;7391771;19;20006;-52
2021/12/01 09:32:37;;;;;;;5.55;1.75;;;;;;;;;;7390284;19;20034;-61
2021/12/01 09:35:06;;;;;;;5.30;2.22;;;;;;;;;;7391224;19;20007;-57
2021/12/01 09:37:35;;;;;;;5.07;2.50;;;;;;;;;;7391849;19;20056;-54
2021/12/01 09:40:12;;;;;;;4.82;1.85;;;;;;;;;;7391539;19;20002;-57
2021/12/01 09:42:49;;;;;;;7.00;1.83;;;;;;;;;;7389610;19;20040;-61
2021/12/01 09:45:20;;;;;;;4.82;1.75;;;;;;;;;;7390043;19;20034;-62
2021/12/01 09:47:50;;;;;;;2.53;1.60;;;;;;;;;;7390563;19;20017;-61
2021/12/01 09:50:17;;;;;;;4.00;1.73;;;;;;;;;;7391467;19;20070;-53
2021/12/01 09:52:45;;;;;;;3.90;2.10;;;;;;;;;;7389084;19;20483;-59
2021/12/01 09:55:16;;;;;;;5.88;1.67;;;;;;;;;;7391019;19;20007;-61
2021/12/01 09:58:06;;;;;;;5.00;2.42;;;;;;;;;;7390474;19;20010;-61
2021/12/01 10:00:36;;;;;;;5.88;1.80;;;;;;;;;;7389149;19;20010;-61
2021/12/01 10:03:04;;;;;;;5.80;2.25;;;;;;;;;;7389245;19;20078;-55
2021/12/01 10:05:51;;;;;;;3.47;1.75;;;;;;;;;;7390488;19;20015;-53
2021/12/01 10:08:23;;;;;;;3.88;1.60;;;;;;;;;;7390122;19;20021;-60
2021/12/01 10:10:52;;;;;;;4.80;1.77;;;;;;;;;;7389660;19;20014;-55
2021/12/01 10:13:29;;;;;;;5.63;2.00;;;;;;;;;;7390492;19;20015;-55
2021/12/01 10:16:01;;;;;;;4.28;1.80;;;;;;;;;;7390137;19;20019;-57
2021/12/01 10:18:34;;;;;;;9.60;2.08;;;;;;;;;;7390638;19;20038;-61
2021/12/01 10:21:23;;;;;;;3.67;1.77;;;;;;;;;;7394404;19;20018;-61
2021/12/01 10:23:54;;;;;;;5.20;1.75;;;;;;;;;;7389566;19;20006;-59
2021/12/01 10:26:25;;;;;;;6.38;2.08;;;;;;;;;;7389536;19;20030;-54
2021/12/01 10:28:58;;;;;;;6.07;1.90;;;;;;;;;;7389722;19;20011;-61
2021/12/01 10:31:33;;;;;;;4.03;2.20;;;;;;;;;;7389200;19;20498;-61
2021/12/01 10:34:33;;;;;;;6.07;1.40;;;;;;;;;;7389423;19;20080;-54
2021/12/01 10:37:08;;;;;;;4.05;1.60;;;;;;;;;;7389793;19;20014;-55
2021/12/01 10:39:38;;;;;;;4.90;1.80;;;;;;;;;;7389480;19;20492;-49
2021/12/01 10:42:08;;;;;;;2.85;1.67;;;;;;;;;;7389843;19;20035;-57
2021/12/01 10:44:36;;;;;;;2.30;1.75;;;;;;;;;;7389232;19;20022;-53
2021/12/01 10:47:09;;;;;;;3.25;1.90;;;;;;;;;;7389625;19;20103;-60
2021/12/01 10:49:42;;;;;;;;;;;;;;;;;;7390055;19;20343;-55
2021/12/01 10:52:37;;;;;;;3.17;1.65;;;;;;;;;;7387952;19;19934;-60
2021/12/01 10:55:10;;;;;;;2.58;1.90;;;;;;;;;;7389116;19;20463;-52
2021/12/01 10:57:42;;;;;;;5.43;1.75;;;;;;;;;;7388881;19;20032;-61
2021/12/01 11:00:17;;;;;;;2.72;1.48;;;;;;;;;;7389019;19;20390;-56
2021/12/01 11:02:45;;;;;;;6.80;1.65;;;;;;;;;;7388285;19;20014;-58
2021/12/01 11:05:31;;;;;;;3.78;1.42;;;;;;;;;;7388557;19;20013;-60
2021/12/01 11:08:21;;;;;;;3.30;1.50;;;;;;;;;;7389007;19;20018;-57
2021/12/01 11:11:16;;;;;;;3.05;1.50;;;;;;;;;;7387456;19;20007;-59
2021/12/01 11:14:19;;;;;;;4.05;1.70;;;;;;;;;;7394911;19;20066;-60
2021/12/01 11:16:46;;;;;;;3.90;2.10;;;;;;;;;;7395474;19;20039;-57
2021/12/01 11:19:14;;;;;;;3.20;1.63;;;;;;;;;;7395838;19;20035;-52
2021/12/01 11:21:42;;;;;;;4.10;1.85;;;;;;;;;;7395847;19;20021;-57
2021/12/01 11:24:12;;;;;;;4.28;1.80;;;;;;;;;;7395249;19;20017;-58
2021/12/01 11:26:44;;;;;;;3.25;1.95;;;;;;;;;;7395138;19;20019;-60
2021/12/01 11:29:32;;;;;;;2.90;1.83;;;;;;;;;;7395840;19;20017;-59
2021/12/01 11:32:00;;;;;;;5.40;1.58;;;;;;;;;;7393761;19;20039;-59
2021/12/01 11:34:27;;;;;;;3.78;1.52;;;;;;;;;;7395236;19;20010;-56
2021/12/01 11:36:54;;;;;;;3.95;1.85;;;;;;;;;;7394841;19;20030;-61
2021/12/01 11:39:26;;;;;;;5.43;1.80;;;;;;;;;;7391751;19;20019;-60
2021/12/01 11:41:55;;;;;;;3.30;1.75;;;;;;;;;;7394586;19;20010;-60
2021/12/01 11:44:25;;;;;;;6.20;2.15;;;;;;;;;;7394701;19;20018;-56
2021/12/01 11:46:53;;;;;;;3.78;1.90;;;;;;;;;;7394781;19;20021;-56
2021/12/01 11:49:22;;;;;;;5.00;2.00;;;;;;;;;;7394385;19;20014;-59
2021/12/01 11:52:02;;;;;;;4.68;1.80;;;;;;;;;;7393560;19;20015;-61
2021/12/01 11:54:31;;;;;;;3.47;1.48;;;;;;;;;;7394117;19;20471;-54
2021/12/01 11:57:02;;;;;;;4.53;2.15;;;;;;;;;;7394229;19;20007;-54
2021/12/01 11:59:43;;;;;;;2.17;1.42;;;;;;;;;;7394301;19;20006;-61
2021/12/01 12:02:22;;;;;;;5.97;1.98;;;;;;;;;;7394253;19;20014;-57
2021/12/01 12:04:52;;;;;;;2.78;1.70;;;;;;;;;;7394205;19;20021;-61
2021/12/01 12:07:25;;;;;;;4.40;1.80;;;;;;;;;;7392125;19;20086;-60
2021/12/01 12:10:22;;;;;;;4.90;2.17;;;;;;;;;;7394184;19;20007;-60
2021/12/01 12:12:57;;;;;;;11.18;2.17;;;;;;;;;;7392356;19;20095;-54
2021/12/01 12:15:50;;;;;;;7.35;1.75;;;;;;;;;;7393883;19;20019;-58
2021/12/01 12:18:37;;;;;;;3.35;1.73;;;;;;;;;;7393651;19;20013;-61
2021/12/01 12:21:11;;;;;;;3.17;1.75;;;;;;;;;;7397945;19;20027;-60
2021/12/01 12:23:39;;;;;;;3.95;2.03;;;;;;;;;;7392760;19;20018;-59
2021/12/01 12:26:10;;;;;;;3.08;1.73;;;;;;;;;;7393377;19;20099;-57
2021/12/01 12:28:40;;;;;;;4.75;1.85;;;;;;;;;;7393191;19;20006;-55
2021/12/01 12:31:20;;;;;;;7.95;2.10;;;;;;;;;;7394812;19;20010;-60
2021/12/01 12:34:04;;;;;;;3.00;1.90;;;;;;;;;;7393328;19;20025;-55
2021/12/01 12:36:37;;;;;;;3.45;1.92;;;;;;;;;;7393115;19;20014;-57
2021/12/01 12:39:09;;;;;;;3.22;1.77;;;;;;;;;;7391582;19;20043;-58
2021/12/01 12:41:54;;;;;;;5.07;1.60;;;;;;;;;;7393339;19;20014;-55
2021/12/01 12:44:33;;;;;;;8.80;2.00;;;;;;;;;;7392504;19;20353;-61
2021/12/01 12:47:24;;;;;;;3.92;2.58;;;;;;;;;;7393202;19;20121;-58
2021/12/01 12:49:53;;;;;;;3.88;1.83;;;;;;;;;;7392333;19;20017;-60
2021/12/01 12:52:26;;;;;;;3.08;1.95;;;;;;;;;;7391213;19;20010;-59
2021/12/01 12:55:09;;;;;;;4.28;1.67;;;;;;;;;;7392494;19;20047;-55
2021/12/01 12:57:58;;;;;;;4.80;2.00;;;;;;;;;;7393545;19;20015;-53
2021/12/01 13:00:29;;;;;;;6.97;2.13;;;;;;;;;;7392594;19;20362;-60
2021/12/01 13:03:00;;;;;;;4.57;1.88;;;;;;;;;;7392271;19;20019;-60
2021/12/01 13:05:34;;;;;;;3.65;1.95;;;;;;;;;;7391805;19;20014;-59
2021/12/01 13:08:02;;;;;;;;;;;;;;;;;;7392263;19;20041;-59
2021/12/01 13:10:39;;;;;;;3.63;1.85;;;;;;;;;;7392614;19;20313;-58
2021/12/01 13:13:18;;;;;;;4.72;1.80;;;;;;;;;;7390758;19;20039;-60
2021/12/01 13:15:48;;;;;;;5.10;1.73;;;;;;;;;;7391388;19;20585;-62
2021/12/01 13:18:22;;;;;;;4.47;2.10;;;;;;;;;;7392054;19;20015;-57
2021/12/01 13:20:54;;;;;;;2.90;1.33;;;;;;;;;;7395517;19;20022;-58
2021/12/01 13:23:32;;;;;;;2.50;1.50;;;;;;;;;;7391258;19;20020;-61
2021/12/01 13:26:22;;;;;;;3.13;1.63;;;;;;;;;;7390791;19;20031;-56
2021/12/01 13:29:01;;;;;;;4.20;1.67;;;;;;;;;;7391503;19;20019;-63
2021/12/01 13:31:31;;;;;;;6.00;2.00;;;;;;;;;;7391344;19;20006;-62
2021/12/01 13:34:08;;;;;;;2.85;1.52;;;;;;;;;;7391308;19;20014;-58
2021/12/01 13:36:36;;;;;;;4.57;2.00;;;;;;;;;;7389344;19;20014;-60
2021/12/01 13:39:16;;;;;;;3.80;1.50;;;;;;;;;;7391638;19;20021;-60
2021/12/01 13:41:59;;;;;;;5.15;2.05;;;;;;;;;;7392939;19;20010;-61
2021/12/01 13:44:28;;;;;;;4.80;2.35;;;;;;;;;;7389049;19;20034;-59
2021/12/01 13:47:03;;;;;;;5.90;1.98;;;;;;;;;;7392546;19;20037;-61
2021/12/01 13:49:37;;;;;;;3.05;1.70;;;;;;;;;;7390604;19;20102;-59
2021/12/01 13:52:06;;;;;;;6.88;1.73;;;;;;;;;;7390521;19;20007;-59
2021/12/01 13:54:33;;;;;;;346.35;130.85;;;;;;;;;;7390976;19;20527;-68
2021/12/01 13:57:08;;;;;;;13.05;7.65;;;;;;;;;;7390370;19;20014;-58
2021/12/01 13:59:48;;;;;;;5.97;2.83;;;;;;;;;;7390550;19;20473;-59
2021/12/01 14:02:34;;;;;;;7.78;2.55;;;;;;;;;;7390192;19;20034;-60
2021/12/01 14:05:03;;;;;;;6.70;2.60;;;;;;;;;;7390385;19;20010;-60
2021/12/01 14:07:42;;;;;;;5.63;2.50;;;;;;;;;;7390581;19;20025;-61
2021/12/01 14:10:31;;;;;;;6.60;2.30;;;;;;;;;;7390007;19;20025;-58
2021/12/01 14:13:00;;;;;;;5.82;2.70;;;;;;;;;;7388587;19;20014;-63
2021/12/01 14:15:29;;;;;;;5.65;2.03;;;;;;;;;;7390476;19;20118;-61
2021/12/01 14:18:01;;;;;;;3.72;1.83;;;;;;;;;;7390621;19;20017;-62
2021/12/01 14:20:29;;;;;;;3.30;1.73;;;;;;;;;;7392724;19;20014;-61
2021/12/01 14:22:58;;;;;;;2.92;1.88;;;;;;;;;;7389858;19;20014;-59
2021/12/01 14:25:27;;;;;;;4.45;1.80;;;;;;;;;;7390009;19;20021;-62
2021/12/01 14:28:05;;;;;;;2.83;1.75;;;;;;;;;;7389872;19;20014;-62
2021/12/01 14:30:35;;;;;;;4.13;2.03;;;;;;;;;;7390033;19;20027;-62
2021/12/01 14:33:08;;;;;;;2.83;1.40;;;;;;;;;;7388627;19;20007;-62
2021/12/01 14:35:36;;;;;;;8.75;2.17;;;;;;;;;;7390049;19;20002;-60
2021/12/01 14:38:05;;;;;;;3.17;2.03;;;;;;;;;;7389691;19;20014;-62
2021/12/01 14:40:47;;;;;;;3.40;1.92;;;;;;;;;;7389827;19;20018;-53
2021/12/01 14:43:24;;;;;;;72.28;20.65;;;;;;;;;;7389385;19;20007;-60
2021/12/01 14:45:52;;;;;;;6.70;2.35;;;;;;;;;;7389353;19;20042;-60
2021/12/01 14:48:22;;;;;;;4.10;2.00;;;;;;;;;;7396758;19;20007;-59
2021/12/01 14:50:54;;;;;;;3.55;1.63;;;;;;;;;;7396497;19;20011;-59
2021/12/01 14:53:24;;;;;;;3.33;1.70;;;;;;;;;;7395031;19;20017;-61
2021/12/01 14:55:52;;;;;;;3.08;1.50;;;;;;;;;;7396255;19;20467;-62
2021/12/01 14:58:19;;;;;;;4.00;1.80;;;;;;;;;;7395623;19;20018;-59
2021/12/01 15:01:01;;;;;;;2.95;1.90;;;;;;;;;;7396594;19;20007;-61
2021/12/01 15:03:38;;;;;;;3.45;2.05;;;;;;;;;;7396205;19;20010;-60
2021/12/01 15:06:07;;;;;;;2.38;1.60;;;;;;;;;;7396956;19;20010;-62
2021/12/01 15:08:39;;;;;;;3.97;1.90;;;;;;;;;;7396432;19;20007;-60
2021/12/01 15:11:09;;;;;;;3.42;1.75;;;;;;;;;;7396357;19;20007;-61
2021/12/01 15:13:42;;;;;;;3.35;1.90;;;;;;;;;;7393005;19;20010;-59
2021/12/01 15:16:18;;;;;;;5.70;2.72;;;;;;;;;;7395718;19;20090;-61